sensor_id;sensor_type;location;lat;lon;timestamp;temperature;humidity
44886;DHT22;36669;51.428;21.162;2022-09-21T00:02:13;9.40;99.90
44886;DHT22;36669;51.428;21.162;2022-09-21T00:04:38;9.30;99.90
44886;DHT22;36669;51.428;21.162;2022-09-21T00:07:04;9.30;99.90
44886;DHT22;36669;51.428;21.162;2022-09-21T00:09:29;9.30;99.90
44886;DHT22;36669;51.428;21.162;2022-09-21T00:11:55;9.40;99.90
44886;DHT22;36669;51.428;21.162;2022-09-21T00:14:20;9.40;99.90
44886;DHT22;36669;51.428;21.162;2022-09-21T00:16:46;9.40;99.90
44886;DHT22;36669;51.428;21.162;2022-09-21T00:19:11;9.40;99.90
44886;DHT22;36669;51.428;21.162;2022-09-21T00:21:38;9.40;99.90
44886;DHT22;36669;51.428;21.162;2022-09-21T00:24:04;9.40;99.90
44886;DHT22;36669;51.428;21.162;2022-09-21T00:26:30;9.40;99.90
44886;DHT22;36669;51.428;21.162;2022-09-21T00:29:00;9.40;99.90
44886;DHT22;36669;51.428;21.162;2022-09-21T00:31:28;9.40;99.90
44886;DHT22;36669;51.428;21.162;2022-09-21T00:33:53;9.40;99.90
44886;DHT22;36669;51.428;21.162;2022-09-21T00:36:21;9.40;99.90
44886;DHT22;36669;51.428;21.162;2022-09-21T00:39:05;9.40;99.90
44886;DHT22;36669;51.428;21.162;2022-09-21T00:41:32;9.40;99.90
44886;DHT22;36669;51.428;21.162;2022-09-21T00:44:22;9.40;99.90
44886;DHT22;36669;51.428;21.162;2022-09-21T00:46:50;9.40;99.90
44886;DHT22;36669;51.428;21.162;2022-09-21T00:49:17;9.40;99.90
44886;DHT22;36669;51.428;21.162;2022-09-21T00:51:43;9.40;99.90
44886;DHT22;36669;51.428;21.162;2022-09-21T00:54:15;9.40;99.90
44886;DHT22;36669;51.428;21.162;2022-09-21T00:56:42;9.50;99.90
44886;DHT22;36669;51.428;21.162;2022-09-21T00:59:09;9.50;99.90
44886;DHT22;36669;51.428;21.162;2022-09-21T01:01:35;9.50;99.90
44886;DHT22;36669;51.428;21.162;2022-09-21T01:04:01;9.50;99.90
44886;DHT22;36669;51.428;21.162;2022-09-21T01:06:27;9.50;99.90
44886;DHT22;36669;51.428;21.162;2022-09-21T01:08:55;9.50;99.90
44886;DHT22;36669;51.428;21.162;2022-09-21T01:14:52;9.50;99.90
44886;DHT22;36669;51.428;21.162;2022-09-21T01:17:47;9.50;99.90
44886;DHT22;36669;51.428;21.162;2022-09-21T01:31:11;9.40;99.90
44886;DHT22;36669;51.428;21.162;2022-09-21T01:33:45;9.40;99.90
44886;DHT22;36669;51.428;21.162;2022-09-21T01:36:14;9.40;99.90
44886;DHT22;36669;51.428;21.162;2022-09-21T01:38:44;9.40;99.90
44886;DHT22;36669;51.428;21.162;2022-09-21T01:41:15;9.40;99.90
44886;DHT22;36669;51.428;21.162;2022-09-21T01:43:46;9.40;99.90
44886;DHT22;36669;51.428;21.162;2022-09-21T01:46:15;9.40;99.90
44886;DHT22;36669;51.428;21.162;2022-09-21T01:48:46;9.40;99.90
44886;DHT22;36669;51.428;21.162;2022-09-21T01:51:15;9.40;99.90
44886;DHT22;36669;51.428;21.162;2022-09-21T01:53:50;9.40;99.90
44886;DHT22;36669;51.428;21.162;2022-09-21T01:56:21;9.40;99.90
44886;DHT22;36669;51.428;21.162;2022-09-21T02:02:10;9.40;99.90
44886;DHT22;36669;51.428;21.162;2022-09-21T02:04:37;9.40;99.90
44886;DHT22;36669;51.428;21.162;2022-09-21T02:07:03;9.40;99.90
44886;DHT22;36669;51.428;21.162;2022-09-21T02:09:29;9.40;99.90
44886;DHT22;36669;51.428;21.162;2022-09-21T02:11:55;9.40;99.90
44886;DHT22;36669;51.428;21.162;2022-09-21T02:14:21;9.40;99.90
44886;DHT22;36669;51.428;21.162;2022-09-21T02:22:14;9.40;99.90
44886;DHT22;36669;51.428;21.162;2022-09-21T02:33:10;9.40;99.90
44886;DHT22;36669;51.428;21.162;2022-09-21T02:36:04;9.40;99.90
44886;DHT22;36669;51.428;21.162;2022-09-21T02:38:36;9.40;99.90
44886;DHT22;36669;51.428;21.162;2022-09-21T02:43:48;9.40;99.90
44886;DHT22;36669;51.428;21.162;2022-09-21T02:46:29;9.50;99.90
44886;DHT22;36669;51.428;21.162;2022-09-21T02:49:02;9.40;99.90
44886;DHT22;36669;51.428;21.162;2022-09-21T02:51:31;9.50;99.90
44886;DHT22;36669;51.428;21.162;2022-09-21T02:54:01;9.40;99.90
44886;DHT22;36669;51.428;21.162;2022-09-21T02:56:29;9.40;99.90
44886;DHT22;36669;51.428;21.162;2022-09-21T02:58:57;9.40;99.90
44886;DHT22;36669;51.428;21.162;2022-09-21T03:01:25;9.40;99.90
44886;DHT22;36669;51.428;21.162;2022-09-21T03:03:51;9.40;99.90
44886;DHT22;36669;51.428;21.162;2022-09-21T03:06:16;9.40;99.90
44886;DHT22;36669;51.428;21.162;2022-09-21T03:08:42;9.40;99.90
44886;DHT22;36669;51.428;21.162;2022-09-21T03:11:07;9.40;99.90
44886;DHT22;36669;51.428;21.162;2022-09-21T03:13:33;9.40;99.90
44886;DHT22;36669;51.428;21.162;2022-09-21T03:16:03;9.40;99.90
44886;DHT22;36669;51.428;21.162;2022-09-21T03:18:30;9.40;99.90
44886;DHT22;36669;51.428;21.162;2022-09-21T03:20:56;9.40;99.90
44886;DHT22;36669;51.428;21.162;2022-09-21T03:23:22;9.40;99.90
44886;DHT22;36669;51.428;21.162;2022-09-21T03:25:47;9.40;99.90
44886;DHT22;36669;51.428;21.162;2022-09-21T03:28:14;9.50;99.90
44886;DHT22;36669;51.428;21.162;2022-09-21T03:30:40;9.50;99.90
44886;DHT22;36669;51.428;21.162;2022-09-21T03:33:06;9.50;99.90
44886;DHT22;36669;51.428;21.162;2022-09-21T03:35:32;9.50;99.90
44886;DHT22;36669;51.428;21.162;2022-09-21T03:37:58;9.50;99.90
44886;DHT22;36669;51.428;21.162;2022-09-21T03:40:24;9.50;99.90
44886;DHT22;36669;51.428;21.162;2022-09-21T03:42:49;9.50;99.90
44886;DHT22;36669;51.428;21.162;2022-09-21T03:45:15;9.50;99.90
44886;DHT22;36669;51.428;21.162;2022-09-21T03:47:40;9.50;99.90
44886;DHT22;36669;51.428;21.162;2022-09-21T03:50:07;9.50;99.90
44886;DHT22;36669;51.428;21.162;2022-09-21T03:52:32;9.50;99.90
44886;DHT22;36669;51.428;21.162;2022-09-21T03:54:58;9.50;99.90
44886;DHT22;36669;51.428;21.162;2022-09-21T03:57:24;9.50;99.90
44886;DHT22;36669;51.428;21.162;2022-09-21T03:59:49;9.50;99.90
44886;DHT22;36669;51.428;21.162;2022-09-21T04:02:15;9.50;99.90
44886;DHT22;36669;51.428;21.162;2022-09-21T04:04:41;9.50;99.90
44886;DHT22;36669;51.428;21.162;2022-09-21T04:07:06;9.50;99.90
44886;DHT22;36669;51.428;21.162;2022-09-21T04:09:32;9.50;99.90
44886;DHT22;36669;51.428;21.162;2022-09-21T04:11:57;9.50;99.90
44886;DHT22;36669;51.428;21.162;2022-09-21T04:14:23;9.50;99.90
44886;DHT22;36669;51.428;21.162;2022-09-21T04:16:49;9.50;99.90
44886;DHT22;36669;51.428;21.162;2022-09-21T04:19:14;9.50;99.90
44886;DHT22;36669;51.428;21.162;2022-09-21T04:21:40;9.50;99.90
44886;DHT22;36669;51.428;21.162;2022-09-21T04:24:05;9.50;99.90
44886;DHT22;36669;51.428;21.162;2022-09-21T04:26:32;9.50;99.90
44886;DHT22;36669;51.428;21.162;2022-09-21T04:28:59;9.50;99.90
44886;DHT22;36669;51.428;21.162;2022-09-21T04:31:25;9.50;99.90
44886;DHT22;36669;51.428;21.162;2022-09-21T04:33:53;9.50;99.90
44886;DHT22;36669;51.428;21.162;2022-09-21T04:36:20;9.50;99.90
44886;DHT22;36669;51.428;21.162;2022-09-21T04:38:46;9.50;99.90
44886;DHT22;36669;51.428;21.162;2022-09-21T04:41:12;9.50;99.90
44886;DHT22;36669;51.428;21.162;2022-09-21T04:43:41;9.60;99.90
44886;DHT22;36669;51.428;21.162;2022-09-21T04:46:09;9.60;99.90
44886;DHT22;36669;51.428;21.162;2022-09-21T04:48:34;9.60;99.90
44886;DHT22;36669;51.428;21.162;2022-09-21T04:51:01;9.60;99.90
44886;DHT22;36669;51.428;21.162;2022-09-21T04:53:27;9.60;99.90
44886;DHT22;36669;51.428;21.162;2022-09-21T04:55:52;9.60;99.90
44886;DHT22;36669;51.428;21.162;2022-09-21T04:58:18;9.60;99.90
44886;DHT22;36669;51.428;21.162;2022-09-21T05:00:43;9.60;99.90
44886;DHT22;36669;51.428;21.162;2022-09-21T05:03:09;9.60;99.90
44886;DHT22;36669;51.428;21.162;2022-09-21T05:05:34;9.60;99.90
44886;DHT22;36669;51.428;21.162;2022-09-21T05:08:00;9.60;99.90
44886;DHT22;36669;51.428;21.162;2022-09-21T05:10:26;9.60;99.90
44886;DHT22;36669;51.428;21.162;2022-09-21T05:12:51;9.60;99.90
44886;DHT22;36669;51.428;21.162;2022-09-21T05:15:17;9.60;99.90
44886;DHT22;36669;51.428;21.162;2022-09-21T05:17:42;9.70;99.90
44886;DHT22;36669;51.428;21.162;2022-09-21T05:20:09;9.70;99.90
44886;DHT22;36669;51.428;21.162;2022-09-21T05:22:35;9.70;99.90
44886;DHT22;36669;51.428;21.162;2022-09-21T05:25:00;9.70;99.90
44886;DHT22;36669;51.428;21.162;2022-09-21T05:27:26;9.70;99.90
44886;DHT22;36669;51.428;21.162;2022-09-21T05:29:51;9.70;99.90
44886;DHT22;36669;51.428;21.162;2022-09-21T05:32:19;9.70;99.90
44886;DHT22;36669;51.428;21.162;2022-09-21T05:35:23;9.70;99.90
44886;DHT22;36669;51.428;21.162;2022-09-21T05:38:00;9.70;99.90
44886;DHT22;36669;51.428;21.162;2022-09-21T05:40:28;9.70;99.90
44886;DHT22;36669;51.428;21.162;2022-09-21T05:42:53;9.70;99.90
44886;DHT22;36669;51.428;21.162;2022-09-21T05:45:19;9.70;99.90
44886;DHT22;36669;51.428;21.162;2022-09-21T05:50:27;9.70;99.90
44886;DHT22;36669;51.428;21.162;2022-09-21T05:55:59;9.70;99.90
44886;DHT22;36669;51.428;21.162;2022-09-21T06:04:03;9.80;99.90
44886;DHT22;36669;51.428;21.162;2022-09-21T06:06:28;9.70;99.90
44886;DHT22;36669;51.428;21.162;2022-09-21T06:08:54;9.80;99.90
44886;DHT22;36669;51.428;21.162;2022-09-21T06:11:20;9.80;99.90
44886;DHT22;36669;51.428;21.162;2022-09-21T06:13:46;9.80;99.90
44886;DHT22;36669;51.428;21.162;2022-09-21T06:16:11;9.80;99.90
44886;DHT22;36669;51.428;21.162;2022-09-21T06:18:37;9.80;99.90
44886;DHT22;36669;51.428;21.162;2022-09-21T06:21:03;9.90;99.90
44886;DHT22;36669;51.428;21.162;2022-09-21T06:23:29;9.80;99.90
44886;DHT22;36669;51.428;21.162;2022-09-21T06:25:55;9.80;99.90
44886;DHT22;36669;51.428;21.162;2022-09-21T06:28:20;9.80;99.90
44886;DHT22;36669;51.428;21.162;2022-09-21T06:30:53;9.80;99.90
44886;DHT22;36669;51.428;21.162;2022-09-21T06:33:19;9.80;99.90
44886;DHT22;36669;51.428;21.162;2022-09-21T06:35:53;9.90;99.90
44886;DHT22;36669;51.428;21.162;2022-09-21T06:38:19;9.80;99.90
44886;DHT22;36669;51.428;21.162;2022-09-21T06:40:45;9.80;99.90
44886;DHT22;36669;51.428;21.162;2022-09-21T06:43:11;9.90;99.90
44886;DHT22;36669;51.428;21.162;2022-09-21T06:45:36;9.90;99.90
44886;DHT22;36669;51.428;21.162;2022-09-21T06:48:02;9.90;99.90
44886;DHT22;36669;51.428;21.162;2022-09-21T06:50:27;9.90;99.90
44886;DHT22;36669;51.428;21.162;2022-09-21T06:52:53;9.90;99.90
44886;DHT22;36669;51.428;21.162;2022-09-21T06:55:19;9.90;99.90
44886;DHT22;36669;51.428;21.162;2022-09-21T06:57:44;10.00;99.90
44886;DHT22;36669;51.428;21.162;2022-09-21T07:00:11;9.90;99.90
44886;DHT22;36669;51.428;21.162;2022-09-21T07:02:37;10.00;99.90
44886;DHT22;36669;51.428;21.162;2022-09-21T07:05:03;10.00;99.90
44886;DHT22;36669;51.428;21.162;2022-09-21T07:07:29;10.00;99.90
44886;DHT22;36669;51.428;21.162;2022-09-21T07:09:55;10.10;99.90
44886;DHT22;36669;51.428;21.162;2022-09-21T07:12:21;10.10;99.90
44886;DHT22;36669;51.428;21.162;2022-09-21T07:14:46;10.10;99.90
44886;DHT22;36669;51.428;21.162;2022-09-21T07:17:12;10.10;99.90
44886;DHT22;36669;51.428;21.162;2022-09-21T07:19:37;10.10;99.90
44886;DHT22;36669;51.428;21.162;2022-09-21T07:22:03;10.20;99.90
44886;DHT22;36669;51.428;21.162;2022-09-21T07:24:29;10.10;99.90
44886;DHT22;36669;51.428;21.162;2022-09-21T07:26:54;10.10;99.90
44886;DHT22;36669;51.428;21.162;2022-09-21T07:29:20;10.20;99.90
44886;DHT22;36669;51.428;21.162;2022-09-21T07:31:45;10.20;99.90
44886;DHT22;36669;51.428;21.162;2022-09-21T07:34:11;10.20;99.90
44886;DHT22;36669;51.428;21.162;2022-09-21T07:36:36;10.20;99.90
44886;DHT22;36669;51.428;21.162;2022-09-21T07:39:02;10.30;99.90
44886;DHT22;36669;51.428;21.162;2022-09-21T07:41:28;10.30;99.90
44886;DHT22;36669;51.428;21.162;2022-09-21T07:43:53;10.30;99.90
44886;DHT22;36669;51.428;21.162;2022-09-21T07:46:19;10.40;99.90
44886;DHT22;36669;51.428;21.162;2022-09-21T07:48:44;10.40;99.90
44886;DHT22;36669;51.428;21.162;2022-09-21T07:51:12;10.40;99.90
44886;DHT22;36669;51.428;21.162;2022-09-21T07:53:40;10.50;99.90
44886;DHT22;36669;51.428;21.162;2022-09-21T07:56:11;10.50;99.90
44886;DHT22;36669;51.428;21.162;2022-09-21T07:58:37;10.60;99.90
44886;DHT22;36669;51.428;21.162;2022-09-21T08:01:06;10.60;99.90
44886;DHT22;36669;51.428;21.162;2022-09-21T08:03:31;10.60;99.90
44886;DHT22;36669;51.428;21.162;2022-09-21T08:05:58;10.70;99.90
44886;DHT22;36669;51.428;21.162;2022-09-21T08:08:23;10.70;99.90
44886;DHT22;36669;51.428;21.162;2022-09-21T08:10:49;10.80;99.90
44886;DHT22;36669;51.428;21.162;2022-09-21T08:13:14;10.90;99.90
44886;DHT22;36669;51.428;21.162;2022-09-21T08:15:40;10.90;99.90
44886;DHT22;36669;51.428;21.162;2022-09-21T08:18:05;11.00;99.90
44886;DHT22;36669;51.428;21.162;2022-09-21T08:20:31;11.10;99.90
44886;DHT22;36669;51.428;21.162;2022-09-21T08:22:56;11.10;99.90
44886;DHT22;36669;51.428;21.162;2022-09-21T08:25:22;11.10;99.90
44886;DHT22;36669;51.428;21.162;2022-09-21T08:27:47;11.20;99.90
44886;DHT22;36669;51.428;21.162;2022-09-21T08:30:13;11.30;99.90
44886;DHT22;36669;51.428;21.162;2022-09-21T08:32:39;11.30;99.90
44886;DHT22;36669;51.428;21.162;2022-09-21T08:35:06;11.40;99.90
44886;DHT22;36669;51.428;21.162;2022-09-21T08:37:32;11.40;99.90
44886;DHT22;36669;51.428;21.162;2022-09-21T08:39:57;11.40;99.90
44886;DHT22;36669;51.428;21.162;2022-09-21T08:45:03;11.40;99.90
44886;DHT22;36669;51.428;21.162;2022-09-21T08:53:01;11.70;99.90
44886;DHT22;36669;51.428;21.162;2022-09-21T08:55:27;11.70;99.90
44886;DHT22;36669;51.428;21.162;2022-09-21T08:57:53;11.80;99.90
44886;DHT22;36669;51.428;21.162;2022-09-21T09:00:19;11.80;99.90
44886;DHT22;36669;51.428;21.162;2022-09-21T09:16:17;12.10;99.90
44886;DHT22;36669;51.428;21.162;2022-09-21T09:18:56;12.30;99.90
44886;DHT22;36669;51.428;21.162;2022-09-21T09:21:30;12.30;99.90
44886;DHT22;36669;51.428;21.162;2022-09-21T09:24:11;12.20;99.90
44886;DHT22;36669;51.428;21.162;2022-09-21T09:26:45;12.40;99.90
44886;DHT22;36669;51.428;21.162;2022-09-21T09:31:58;12.60;99.90
44886;DHT22;36669;51.428;21.162;2022-09-21T09:34:34;12.60;99.90
44886;DHT22;36669;51.428;21.162;2022-09-21T09:37:11;12.60;99.90
44886;DHT22;36669;51.428;21.162;2022-09-21T09:39:37;12.70;99.90
44886;DHT22;36669;51.428;21.162;2022-09-21T09:50:28;13.20;99.90
44886;DHT22;36669;51.428;21.162;2022-09-21T09:53:12;13.00;99.90
44886;DHT22;36669;51.428;21.162;2022-09-21T09:55:50;13.10;99.90
44886;DHT22;36669;51.428;21.162;2022-09-21T09:58:19;13.20;99.90
44886;DHT22;36669;51.428;21.162;2022-09-21T10:00:50;13.20;99.90
44886;DHT22;36669;51.428;21.162;2022-09-21T10:03:18;13.50;99.90
44886;DHT22;36669;51.428;21.162;2022-09-21T10:05:44;13.90;99.90
44886;DHT22;36669;51.428;21.162;2022-09-21T10:10:55;14.20;99.90
44886;DHT22;36669;51.428;21.162;2022-09-21T10:13:28;14.10;99.90
44886;DHT22;36669;51.428;21.162;2022-09-21T10:15:57;13.80;99.90
44886;DHT22;36669;51.428;21.162;2022-09-21T10:18:39;13.40;99.90
44886;DHT22;36669;51.428;21.162;2022-09-21T10:21:08;13.30;99.90
44886;DHT22;36669;51.428;21.162;2022-09-21T10:23:35;13.30;99.90
44886;DHT22;36669;51.428;21.162;2022-09-21T10:26:07;13.20;99.90
44886;DHT22;36669;51.428;21.162;2022-09-21T10:28:34;13.20;99.90
44886;DHT22;36669;51.428;21.162;2022-09-21T10:31:10;13.30;99.90
44886;DHT22;36669;51.428;21.162;2022-09-21T10:33:51;13.30;99.90
44886;DHT22;36669;51.428;21.162;2022-09-21T10:36:48;13.20;99.90
44886;DHT22;36669;51.428;21.162;2022-09-21T10:42:10;13.40;99.90
44886;DHT22;36669;51.428;21.162;2022-09-21T10:44:45;13.70;99.90
44886;DHT22;36669;51.428;21.162;2022-09-21T10:49:53;13.70;99.90
44886;DHT22;36669;51.428;21.162;2022-09-21T10:52:22;13.80;99.90
44886;DHT22;36669;51.428;21.162;2022-09-21T10:54:50;13.90;99.90
44886;DHT22;36669;51.428;21.162;2022-09-21T10:57:18;13.80;99.90
44886;DHT22;36669;51.428;21.162;2022-09-21T10:59:44;13.80;99.90
44886;DHT22;36669;51.428;21.162;2022-09-21T11:02:45;13.90;99.90
44886;DHT22;36669;51.428;21.162;2022-09-21T11:10:29;14.20;99.90
44886;DHT22;36669;51.428;21.162;2022-09-21T11:16:18;14.10;99.90
44886;DHT22;36669;51.428;21.162;2022-09-21T11:21:46;14.10;99.90
44886;DHT22;36669;51.428;21.162;2022-09-21T11:24:42;14.20;99.90
44886;DHT22;36669;51.428;21.162;2022-09-21T11:27:19;14.30;99.90
44886;DHT22;36669;51.428;21.162;2022-09-21T11:32:35;14.30;99.90
44886;DHT22;36669;51.428;21.162;2022-09-21T11:35:34;14.10;99.90
44886;DHT22;36669;51.428;21.162;2022-09-21T11:41:06;15.10;99.90
44886;DHT22;36669;51.428;21.162;2022-09-21T11:49:30;14.80;99.90
44886;DHT22;36669;51.428;21.162;2022-09-21T11:58:00;14.00;99.90
44886;DHT22;36669;51.428;21.162;2022-09-21T12:00:34;14.00;99.90
44886;DHT22;36669;51.428;21.162;2022-09-21T12:06:13;14.20;99.90
44886;DHT22;36669;51.428;21.162;2022-09-21T12:09:08;14.20;99.90
44886;DHT22;36669;51.428;21.162;2022-09-21T12:11:45;14.20;99.90
44886;DHT22;36669;51.428;21.162;2022-09-21T12:15:02;14.20;99.90
44886;DHT22;36669;51.428;21.162;2022-09-21T12:20:20;14.80;99.90
44886;DHT22;36669;51.428;21.162;2022-09-21T12:22:51;14.90;99.90
44886;DHT22;36669;51.428;21.162;2022-09-21T12:25:27;14.80;99.90
44886;DHT22;36669;51.428;21.162;2022-09-21T12:28:26;14.80;99.90
44886;DHT22;36669;51.428;21.162;2022-09-21T12:31:03;15.10;99.90
44886;DHT22;36669;51.428;21.162;2022-09-21T12:33:44;15.30;99.90
44886;DHT22;36669;51.428;21.162;2022-09-21T12:36:17;15.50;99.90
44886;DHT22;36669;51.428;21.162;2022-09-21T12:39:08;16.00;99.90
44886;DHT22;36669;51.428;21.162;2022-09-21T12:44:18;15.90;99.90
44886;DHT22;36669;51.428;21.162;2022-09-21T12:46:56;15.50;99.90
44886;DHT22;36669;51.428;21.162;2022-09-21T12:49:27;15.50;99.90
44886;DHT22;36669;51.428;21.162;2022-09-21T12:51:58;15.70;99.90
44886;DHT22;36669;51.428;21.162;2022-09-21T13:05:09;14.90;99.90
44886;DHT22;36669;51.428;21.162;2022-09-21T13:07:56;14.50;99.90
44886;DHT22;36669;51.428;21.162;2022-09-21T13:12:55;13.60;99.90
44886;DHT22;36669;51.428;21.162;2022-09-21T13:18:13;13.10;99.90
44886;DHT22;36669;51.428;21.162;2022-09-21T13:20:40;13.00;99.90
44886;DHT22;36669;51.428;21.162;2022-09-21T13:23:14;12.90;99.90
44886;DHT22;36669;51.428;21.162;2022-09-21T13:25:40;12.90;99.90
44886;DHT22;36669;51.428;21.162;2022-09-21T13:28:17;12.90;99.90
44886;DHT22;36669;51.428;21.162;2022-09-21T13:30:44;13.10;99.90
44886;DHT22;36669;51.428;21.162;2022-09-21T13:51:57;15.20;99.90
44886;DHT22;36669;51.428;21.162;2022-09-21T13:54:26;15.40;99.90
44886;DHT22;36669;51.428;21.162;2022-09-21T13:59:41;15.20;99.90
44886;DHT22;36669;51.428;21.162;2022-09-21T14:02:44;15.40;99.90
44886;DHT22;36669;51.428;21.162;2022-09-21T14:05:29;15.60;99.90
44886;DHT22;36669;51.428;21.162;2022-09-21T14:10:28;15.90;99.90
44886;DHT22;36669;51.428;21.162;2022-09-21T14:12:54;16.00;99.90
44886;DHT22;36669;51.428;21.162;2022-09-21T14:20:33;16.00;99.90
44886;DHT22;36669;51.428;21.162;2022-09-21T14:28:13;14.80;99.90
44886;DHT22;36669;51.428;21.162;2022-09-21T14:30:48;14.70;99.90
44886;DHT22;36669;51.428;21.162;2022-09-21T14:33:24;14.50;99.90
44886;DHT22;36669;51.428;21.162;2022-09-21T14:35:51;14.40;99.90
44886;DHT22;36669;51.428;21.162;2022-09-21T14:38:30;14.50;99.90
44886;DHT22;36669;51.428;21.162;2022-09-21T14:41:05;14.40;99.90
44886;DHT22;36669;51.428;21.162;2022-09-21T14:43:36;14.40;99.90
44886;DHT22;36669;51.428;21.162;2022-09-21T14:49:13;14.50;99.90
44886;DHT22;36669;51.428;21.162;2022-09-21T14:57:17;15.00;99.90
44886;DHT22;36669;51.428;21.162;2022-09-21T15:02:35;14.80;99.90
44886;DHT22;36669;51.428;21.162;2022-09-21T15:05:28;15.10;99.90
44886;DHT22;36669;51.428;21.162;2022-09-21T15:10:52;15.50;99.90
44886;DHT22;36669;51.428;21.162;2022-09-21T15:14:05;16.10;99.90
44886;DHT22;36669;51.428;21.162;2022-09-21T15:16:16;16.20;99.90
44886;DHT22;36669;51.428;21.162;2022-09-21T15:18:44;15.80;99.90
44886;DHT22;36669;51.428;21.162;2022-09-21T15:23:47;15.00;99.90
44886;DHT22;36669;51.428;21.162;2022-09-21T15:26:15;14.60;99.90
44886;DHT22;36669;51.428;21.162;2022-09-21T15:28:44;14.30;99.90
44886;DHT22;36669;51.428;21.162;2022-09-21T15:31:10;14.10;99.90
44886;DHT22;36669;51.428;21.162;2022-09-21T15:33:41;14.00;99.90
44886;DHT22;36669;51.428;21.162;2022-09-21T15:36:07;14.00;99.90
44886;DHT22;36669;51.428;21.162;2022-09-21T15:38:33;13.90;99.90
44886;DHT22;36669;51.428;21.162;2022-09-21T15:40:59;13.80;99.90
44886;DHT22;36669;51.428;21.162;2022-09-21T15:43:24;13.70;99.90
44886;DHT22;36669;51.428;21.162;2022-09-21T15:48:27;13.50;99.90
44886;DHT22;36669;51.428;21.162;2022-09-21T15:51:41;13.50;99.90
44886;DHT22;36669;51.428;21.162;2022-09-21T15:53:50;13.30;99.90
44886;DHT22;36669;51.428;21.162;2022-09-21T15:56:21;13.20;99.90
44886;DHT22;36669;51.428;21.162;2022-09-21T15:58:48;13.10;99.90
44886;DHT22;36669;51.428;21.162;2022-09-21T16:01:17;13.00;99.90
44886;DHT22;36669;51.428;21.162;2022-09-21T16:03:44;12.90;99.90
44886;DHT22;36669;51.428;21.162;2022-09-21T16:06:25;12.90;99.90
44886;DHT22;36669;51.428;21.162;2022-09-21T16:08:52;12.80;99.90
44886;DHT22;36669;51.428;21.162;2022-09-21T16:13:58;12.70;99.90
44886;DHT22;36669;51.428;21.162;2022-09-21T16:16:24;12.60;99.90
44886;DHT22;36669;51.428;21.162;2022-09-21T16:18:51;12.60;99.90
44886;DHT22;36669;51.428;21.162;2022-09-21T16:23:55;12.50;99.90
44886;DHT22;36669;51.428;21.162;2022-09-21T16:26:33;12.50;99.90
44886;DHT22;36669;51.428;21.162;2022-09-21T16:31:39;12.40;99.90
44886;DHT22;36669;51.428;21.162;2022-09-21T16:34:19;12.30;99.90
44886;DHT22;36669;51.428;21.162;2022-09-21T16:36:47;12.30;99.90
44886;DHT22;36669;51.428;21.162;2022-09-21T16:39:14;12.30;99.90
44886;DHT22;36669;51.428;21.162;2022-09-21T16:41:51;12.30;99.90
44886;DHT22;36669;51.428;21.162;2022-09-21T16:44:22;12.30;99.90
44886;DHT22;36669;51.428;21.162;2022-09-21T16:46:54;12.20;99.90
44886;DHT22;36669;51.428;21.162;2022-09-21T16:49:21;12.20;99.90
44886;DHT22;36669;51.428;21.162;2022-09-21T16:51:48;12.10;99.90
44886;DHT22;36669;51.428;21.162;2022-09-21T16:54:17;12.10;99.90
44886;DHT22;36669;51.428;21.162;2022-09-21T16:56:43;12.10;99.90
44886;DHT22;36669;51.428;21.162;2022-09-21T16:59:18;12.10;99.90
44886;DHT22;36669;51.428;21.162;2022-09-21T17:01:44;12.10;99.90
44886;DHT22;36669;51.428;21.162;2022-09-21T17:04:10;12.00;99.90
44886;DHT22;36669;51.428;21.162;2022-09-21T17:06:35;12.00;99.90
44886;DHT22;36669;51.428;21.162;2022-09-21T17:09:10;12.00;99.90
44886;DHT22;36669;51.428;21.162;2022-09-21T17:11:39;11.90;99.90
44886;DHT22;36669;51.428;21.162;2022-09-21T17:14:04;11.90;99.90
44886;DHT22;36669;51.428;21.162;2022-09-21T17:16:30;11.90;99.90
44886;DHT22;36669;51.428;21.162;2022-09-21T17:18:55;11.80;99.90
44886;DHT22;36669;51.428;21.162;2022-09-21T17:21:22;11.90;99.90
44886;DHT22;36669;51.428;21.162;2022-09-21T17:23:48;11.80;99.90
44886;DHT22;36669;51.428;21.162;2022-09-21T17:26:15;11.70;99.90
44886;DHT22;36669;51.428;21.162;2022-09-21T17:28:43;11.70;99.90
44886;DHT22;36669;51.428;21.162;2022-09-21T17:31:14;11.70;99.90
44886;DHT22;36669;51.428;21.162;2022-09-21T17:33:39;11.60;99.90
44886;DHT22;36669;51.428;21.162;2022-09-21T17:36:05;11.70;99.90
44886;DHT22;36669;51.428;21.162;2022-09-21T17:38:31;11.60;99.90
44886;DHT22;36669;51.428;21.162;2022-09-21T17:40:57;11.60;99.90
44886;DHT22;36669;51.428;21.162;2022-09-21T17:43:48;11.60;99.90
44886;DHT22;36669;51.428;21.162;2022-09-21T17:49:11;11.50;99.90
44886;DHT22;36669;51.428;21.162;2022-09-21T17:51:37;11.50;99.90
44886;DHT22;36669;51.428;21.162;2022-09-21T17:54:02;11.40;99.90
44886;DHT22;36669;51.428;21.162;2022-09-21T17:56:39;11.40;99.90
44886;DHT22;36669;51.428;21.162;2022-09-21T17:59:25;11.40;99.90
44886;DHT22;36669;51.428;21.162;2022-09-21T18:01:51;11.40;99.90
44886;DHT22;36669;51.428;21.162;2022-09-21T18:04:16;11.40;99.90
44886;DHT22;36669;51.428;21.162;2022-09-21T18:06:42;11.30;99.90
44886;DHT22;36669;51.428;21.162;2022-09-21T18:09:09;11.30;99.90
44886;DHT22;36669;51.428;21.162;2022-09-21T18:14:50;11.30;99.90
44886;DHT22;36669;51.428;21.162;2022-09-21T18:25:36;11.20;99.90
44886;DHT22;36669;51.428;21.162;2022-09-21T18:28:13;11.30;99.90
44886;DHT22;36669;51.428;21.162;2022-09-21T18:30:46;11.20;99.90
44886;DHT22;36669;51.428;21.162;2022-09-21T18:36:27;11.20;99.90
44886;DHT22;36669;51.428;21.162;2022-09-21T18:39:18;11.10;99.90
44886;DHT22;36669;51.428;21.162;2022-09-21T18:44:45;11.10;99.90
44886;DHT22;36669;51.428;21.162;2022-09-21T18:47:29;11.10;99.90
44886;DHT22;36669;51.428;21.162;2022-09-21T18:50:14;11.10;99.90
44886;DHT22;36669;51.428;21.162;2022-09-21T18:52:56;11.10;99.90
44886;DHT22;36669;51.428;21.162;2022-09-21T18:55:27;11.10;99.90
44886;DHT22;36669;51.428;21.162;2022-09-21T18:57:54;11.10;99.90
44886;DHT22;36669;51.428;21.162;2022-09-21T19:00:21;11.00;99.90
44886;DHT22;36669;51.428;21.162;2022-09-21T19:02:47;11.00;99.90
44886;DHT22;36669;51.428;21.162;2022-09-21T19:05:12;11.00;99.90
44886;DHT22;36669;51.428;21.162;2022-09-21T19:10:41;11.00;99.90
44886;DHT22;36669;51.428;21.162;2022-09-21T19:18:44;10.90;99.90
44886;DHT22;36669;51.428;21.162;2022-09-21T19:32:45;10.70;99.90
44886;DHT22;36669;51.428;21.162;2022-09-21T19:35:16;10.60;99.90
44886;DHT22;36669;51.428;21.162;2022-09-21T19:37:42;10.60;99.90
44886;DHT22;36669;51.428;21.162;2022-09-21T19:40:08;10.50;99.90
44886;DHT22;36669;51.428;21.162;2022-09-21T19:45:27;10.50;99.90